Seguici su twitter Seguici su facebook
LIVE Streaming HD
Get Adobe Flash player
Dati meteo stazione (refresh automatico ogni minuto)
Ostia VENTO: VELOCITÀ   PIOGGIA: QTA GIORNO TEMPERATURA: ATTUALE
SPOT: Kursaal Lido Ostia ---- Posizione su Googlemap:Latitudine: 41.71N Longitudine: 12.31E RAFFICA MASSIMA: QTA MENSILE: MASSIMA:
VELOCITÀ MEDIA: QTA ANNUALE: MINIMA:
DIREZIONE: UMIDITÀ: WIND CHILL:
TIPO: DEW POINT:
BEAUFORT: PRESSIONE:
I nostri partner
Ostia nelle ultime ore
Applica filtri in visualizzazione Intervallo delle letture nelle ultime

Ora Direzione Vento Velocita' Vento Media Vento Raffica Max. Temperatura Wind Chill Pioggia Pressione
00:48:18320 °(NW)0 Kts0 Kts0 Kts19.8 °C19.8 °C0 mm1014 Hpa
00:48:18320 °(NW)0 Kts0 Kts0 Kts19.8 °C19.8 °C0 mm1014 Hpa
00:48:18320 °(NW)0 Kts0 Kts0 Kts19.8 °C19.8 °C0 mm1014 Hpa
00:48:18320 °(NW)0 Kts0 Kts0 Kts19.8 °C19.8 °C0 mm1014 Hpa
00:48:18320 °(NW)0 Kts0 Kts0 Kts19.8 °C19.8 °C0 mm1014 Hpa
00:48:18320 °(NW)0 Kts0 Kts0 Kts19.8 °C19.8 °C0 mm1014 Hpa
00:48:18320 °(NW)0 Kts0 Kts0 Kts19.8 °C19.8 °C0 mm1014 Hpa
00:48:18320 °(NW)0 Kts0 Kts0 Kts19.8 °C19.8 °C0 mm1014 Hpa
00:48:18320 °(NW)0 Kts0 Kts0 Kts19.8 °C19.8 °C0 mm1014 Hpa
00:44:06320 °(NW)0 Kts0 Kts0 Kts19.8 °C19.8 °C0 mm1014.1 Hpa
00:38:46320 °(NW)0 Kts0 Kts0 Kts19.7 °C19.7 °C0 mm1014.1 Hpa
00:33:30359 °(N)0 Kts0 Kts0 Kts19.9 °C19.9 °C0 mm1014 Hpa
00:28:17320 °(NW)0 Kts0 Kts0 Kts20.1 °C20.1 °C0 mm1014.1 Hpa
00:24:03320 °(NW)0 Kts0 Kts0 Kts20.2 °C20.2 °C0 mm1014 Hpa
00:18:48320 °(NW)0 Kts0 Kts0 Kts20.2 °C20.2 °C0 mm1014.1 Hpa
00:13:32320 °(NW)0 Kts0 Kts11.3 Kts20.2 °C20.2 °C0 mm1014 Hpa
00:08:14359 °(N)0 Kts0 Kts11.3 Kts20.3 °C20.3 °C0 mm1014 Hpa
00:04:00320 °(NW)0 Kts0 Kts11.3 Kts20.4 °C20.4 °C0 mm1014 Hpa
23:58:43320 °(NW)0 Kts0 Kts11.3 Kts20.5 °C20.5 °C0 mm1014 Hpa
23:53:59359 °(N)0 Kts0 Kts11.3 Kts20.6 °C20.6 °C0 mm1014.1 Hpa
23:48:46359 °(N)0 Kts0 Kts11.3 Kts20.6 °C20.6 °C0 mm1014 Hpa
23:43:30320 °(NW)0 Kts0 Kts11.3 Kts20.7 °C20.7 °C0 mm1014.2 Hpa
23:37:45320 °(NW)0 Kts0 Kts11.3 Kts20.8 °C20.8 °C0 mm1014.2 Hpa
23:33:55320 °(NW)0 Kts0 Kts11.3 Kts20.7 °C20.7 °C0 mm1014 Hpa